sensor_id;sensor_type;location;lat;lon;timestamp;pressure;altitude;pressure_sealevel;temperature;humidity
51147;BME280;37207;53.060;18.726;2024-03-23T00:55:52;99834.77;;;8.07;100.00
51147;BME280;37207;53.060;18.726;2024-03-23T00:58:18;99834.31;;;8.03;100.00
51147;BME280;37207;53.060;18.726;2024-03-23T01:00:45;99834.68;;;7.99;100.00
51147;BME280;37207;53.060;18.726;2024-03-23T01:03:11;99835.71;;;7.97;100.00
51147;BME280;37207;53.060;18.726;2024-03-23T01:05:38;99833.25;;;7.94;100.00
51147;BME280;37207;53.060;18.726;2024-03-23T01:08:05;99831.37;;;7.91;100.00
51147;BME280;37207;53.060;18.726;2024-03-23T01:10:31;99825.04;;;7.89;100.00
51147;BME280;37207;53.060;18.726;2024-03-23T01:12:58;99822.73;;;7.87;100.00
51147;BME280;37207;53.060;18.726;2024-03-23T01:15:24;99822.45;;;7.85;100.00
51147;BME280;37207;53.060;18.726;2024-03-23T01:17:51;99818.02;;;7.83;100.00
51147;BME280;37207;53.060;18.726;2024-03-23T01:20:17;99821.05;;;7.81;100.00
51147;BME280;37207;53.060;18.726;2024-03-23T01:22:44;99825.84;;;7.80;100.00
51147;BME280;37207;53.060;18.726;2024-03-23T01:25:10;99826.05;;;7.78;100.00
51147;BME280;37207;53.060;18.726;2024-03-23T01:27:37;99823.81;;;7.76;100.00
51147;BME280;37207;53.060;18.726;2024-03-23T01:30:06;99815.20;;;7.74;100.00
51147;BME280;37207;53.060;18.726;2024-03-23T01:32:33;99811.65;;;7.73;100.00
51147;BME280;37207;53.060;18.726;2024-03-23T01:35:00;99811.89;;;7.73;100.00
51147;BME280;37207;53.060;18.726;2024-03-23T01:37:27;99813.33;;;7.72;100.00
51147;BME280;37207;53.060;18.726;2024-03-23T01:39:54;99817.11;;;7.71;100.00
51147;BME280;37207;53.060;18.726;2024-03-23T01:42:20;99814.20;;;7.69;100.00
51147;BME280;37207;53.060;18.726;2024-03-23T01:44:47;99814.44;;;7.68;100.00
51147;BME280;37207;53.060;18.726;2024-03-23T01:47:13;99825.66;;;7.67;100.00
51147;BME280;37207;53.060;18.726;2024-03-23T01:49:40;99823.89;;;7.65;100.00
51147;BME280;37207;53.060;18.726;2024-03-23T01:52:06;99818.77;;;7.63;100.00
51147;BME280;37207;53.060;18.726;2024-03-23T01:54:33;99813.52;;;7.61;100.00
51147;BME280;37207;53.060;18.726;2024-03-23T01:57:01;99811.17;;;7.60;100.00
51147;BME280;37207;53.060;18.726;2024-03-23T01:59:27;99816.94;;;7.58;100.00
51147;BME280;37207;53.060;18.726;2024-03-23T02:01:54;99815.30;;;7.58;100.00
51147;BME280;37207;53.060;18.726;2024-03-23T02:04:21;99803.02;;;7.56;100.00
51147;BME280;37207;53.060;18.726;2024-03-23T02:06:48;99803.27;;;7.56;100.00
51147;BME280;37207;53.060;18.726;2024-03-23T02:09:15;99805.40;;;7.54;100.00
51147;BME280;37207;53.060;18.726;2024-03-23T02:11:41;99805.13;;;7.52;100.00
51147;BME280;37207;53.060;18.726;2024-03-23T02:14:08;99811.50;;;7.51;100.00
51147;BME280;37207;53.060;18.726;2024-03-23T02:16:34;99812.58;;;7.50;100.00
51147;BME280;37207;53.060;18.726;2024-03-23T02:19:01;99803.17;;;7.48;100.00
51147;BME280;37207;53.060;18.726;2024-03-23T02:21:27;99800.80;;;7.46;100.00
51147;BME280;37207;53.060;18.726;2024-03-23T02:23:55;99796.89;;;7.45;100.00
51147;BME280;37207;53.060;18.726;2024-03-23T02:26:21;99796.80;;;7.44;100.00
51147;BME280;37207;53.060;18.726;2024-03-23T02:28:48;99801.55;;;7.44;100.00
51147;BME280;37207;53.060;18.726;2024-03-23T02:31:14;99796.23;;;7.42;100.00
51147;BME280;37207;53.060;18.726;2024-03-23T02:33:41;99794.63;;;7.41;100.00
51147;BME280;37207;53.060;18.726;2024-03-23T02:36:08;99791.91;;;7.40;100.00
51147;BME280;37207;53.060;18.726;2024-03-23T02:38:35;99785.98;;;7.39;100.00
51147;BME280;37207;53.060;18.726;2024-03-23T02:41:03;99785.39;;;7.38;100.00
51147;BME280;37207;53.060;18.726;2024-03-23T02:43:30;99781.59;;;7.38;100.00
51147;BME280;37207;53.060;18.726;2024-03-23T02:45:56;99773.10;;;7.38;100.00
51147;BME280;37207;53.060;18.726;2024-03-23T02:48:23;99774.08;;;7.36;100.00
51147;BME280;37207;53.060;18.726;2024-03-23T02:50:50;99770.98;;;7.35;100.00
51147;BME280;37207;53.060;18.726;2024-03-23T02:53:17;99767.11;;;7.34;100.00
51147;BME280;37207;53.060;18.726;2024-03-23T02:55:43;99768.35;;;7.34;100.00
51147;BME280;37207;53.060;18.726;2024-03-23T02:58:10;99767.90;;;7.33;100.00
51147;BME280;37207;53.060;18.726;2024-03-23T03:00:36;99761.20;;;7.33;100.00
51147;BME280;37207;53.060;18.726;2024-03-23T03:03:03;99756.95;;;7.32;100.00
51147;BME280;37207;53.060;18.726;2024-03-23T03:05:29;99751.51;;;7.32;100.00
51147;BME280;37207;53.060;18.726;2024-03-23T03:07:56;99749.86;;;7.32;100.00
51147;BME280;37207;53.060;18.726;2024-03-23T03:10:23;99744.52;;;7.32;100.00
51147;BME280;37207;53.060;18.726;2024-03-23T03:12:49;99745.16;;;7.32;100.00
51147;BME280;37207;53.060;18.726;2024-03-23T03:15:15;99748.30;;;7.32;100.00
51147;BME280;37207;53.060;18.726;2024-03-23T03:17:42;99749.80;;;7.32;100.00
51147;BME280;37207;53.060;18.726;2024-03-23T03:20:08;99743.96;;;7.32;100.00
51147;BME280;37207;53.060;18.726;2024-03-23T03:22:39;99744.30;;;7.32;100.00
51147;BME280;37207;53.060;18.726;2024-03-23T03:25:06;99738.76;;;7.31;100.00
51147;BME280;37207;53.060;18.726;2024-03-23T03:27:33;99738.55;;;7.31;100.00
51147;BME280;37207;53.060;18.726;2024-03-23T03:30:01;99731.30;;;7.30;100.00
51147;BME280;37207;53.060;18.726;2024-03-23T03:32:32;99729.23;;;7.28;100.00
51147;BME280;37207;53.060;18.726;2024-03-23T03:34:59;99730.38;;;7.26;100.00
51147;BME280;37207;53.060;18.726;2024-03-23T03:37:25;99725.34;;;7.27;100.00
51147;BME280;37207;53.060;18.726;2024-03-23T03:39:52;99716.20;;;7.26;100.00
51147;BME280;37207;53.060;18.726;2024-03-23T03:42:18;99718.83;;;7.25;100.00
51147;BME280;37207;53.060;18.726;2024-03-23T03:44:45;99717.06;;;7.24;100.00
51147;BME280;37207;53.060;18.726;2024-03-23T03:47:11;99722.38;;;7.25;100.00
51147;BME280;37207;53.060;18.726;2024-03-23T03:49:37;99723.17;;;7.26;100.00
51147;BME280;37207;53.060;18.726;2024-03-23T03:52:04;99717.79;;;7.25;100.00
51147;BME280;37207;53.060;18.726;2024-03-23T03:54:30;99715.28;;;7.25;100.00
51147;BME280;37207;53.060;18.726;2024-03-23T03:56:57;99711.80;;;7.27;100.00
51147;BME280;37207;53.060;18.726;2024-03-23T03:59:24;99707.09;;;7.26;100.00
51147;BME280;37207;53.060;18.726;2024-03-23T04:01:50;99712.48;;;7.25;100.00
51147;BME280;37207;53.060;18.726;2024-03-23T04:04:16;99711.35;;;7.25;100.00
51147;BME280;37207;53.060;18.726;2024-03-23T04:06:43;99718.64;;;7.25;100.00
51147;BME280;37207;53.060;18.726;2024-03-23T04:09:10;99714.75;;;7.26;100.00
51147;BME280;37207;53.060;18.726;2024-03-23T04:11:37;99707.01;;;7.26;100.00
51147;BME280;37207;53.060;18.726;2024-03-23T04:14:04;99703.54;;;7.25;100.00
51147;BME280;37207;53.060;18.726;2024-03-23T04:16:34;99707.52;;;7.24;100.00
51147;BME280;37207;53.060;18.726;2024-03-23T04:19:01;99704.52;;;7.24;100.00
51147;BME280;37207;53.060;18.726;2024-03-23T04:21:27;99702.88;;;7.24;100.00
51147;BME280;37207;53.060;18.726;2024-03-23T04:23:54;99705.02;;;7.23;100.00
51147;BME280;37207;53.060;18.726;2024-03-23T04:26:20;99699.52;;;7.23;100.00
51147;BME280;37207;53.060;18.726;2024-03-23T04:28:47;99703.13;;;7.24;100.00
51147;BME280;37207;53.060;18.726;2024-03-23T04:31:13;99699.53;;;7.23;100.00
51147;BME280;37207;53.060;18.726;2024-03-23T04:33:40;99698.77;;;7.23;100.00
51147;BME280;37207;53.060;18.726;2024-03-23T04:36:06;99693.86;;;7.21;100.00
51147;BME280;37207;53.060;18.726;2024-03-23T04:38:33;99685.02;;;7.20;100.00
51147;BME280;37207;53.060;18.726;2024-03-23T04:41:00;99695.39;;;7.19;100.00
51147;BME280;37207;53.060;18.726;2024-03-23T04:43:28;99677.40;;;7.18;100.00
51147;BME280;37207;53.060;18.726;2024-03-23T04:45:54;99671.20;;;7.18;100.00
51147;BME280;37207;53.060;18.726;2024-03-23T04:48:22;99677.74;;;7.18;100.00
51147;BME280;37207;53.060;18.726;2024-03-23T04:50:49;99686.33;;;7.18;100.00
51147;BME280;37207;53.060;18.726;2024-03-23T04:53:16;99681.80;;;7.18;100.00
51147;BME280;37207;53.060;18.726;2024-03-23T04:55:43;99680.79;;;7.18;100.00
51147;BME280;37207;53.060;18.726;2024-03-23T04:58:10;99686.39;;;7.19;100.00
51147;BME280;37207;53.060;18.726;2024-03-23T05:00:36;99686.89;;;7.18;100.00
51147;BME280;37207;53.060;18.726;2024-03-23T05:03:03;99676.48;;;7.16;100.00
51147;BME280;37207;53.060;18.726;2024-03-23T05:05:31;99678.33;;;7.13;100.00
51147;BME280;37207;53.060;18.726;2024-03-23T05:07:58;99681.30;;;7.11;100.00
51147;BME280;37207;53.060;18.726;2024-03-23T05:10:24;99668.17;;;7.10;100.00
51147;BME280;37207;53.060;18.726;2024-03-23T05:12:50;99667.05;;;7.07;100.00
51147;BME280;37207;53.060;18.726;2024-03-23T05:15:17;99673.29;;;7.06;100.00
51147;BME280;37207;53.060;18.726;2024-03-23T05:17:44;99663.85;;;7.06;100.00
51147;BME280;37207;53.060;18.726;2024-03-23T05:20:10;99660.65;;;7.06;100.00
51147;BME280;37207;53.060;18.726;2024-03-23T05:22:39;99666.40;;;7.07;100.00
51147;BME280;37207;53.060;18.726;2024-03-23T05:25:06;99666.23;;;7.06;100.00
51147;BME280;37207;53.060;18.726;2024-03-23T05:27:34;99657.64;;;7.05;100.00
51147;BME280;37207;53.060;18.726;2024-03-23T05:30:00;99659.84;;;7.05;100.00
51147;BME280;37207;53.060;18.726;2024-03-23T05:32:27;99664.19;;;7.06;100.00
51147;BME280;37207;53.060;18.726;2024-03-23T05:34:54;99662.29;;;7.06;100.00
51147;BME280;37207;53.060;18.726;2024-03-23T05:37:23;99661.05;;;7.06;100.00
51147;BME280;37207;53.060;18.726;2024-03-23T05:39:50;99659.89;;;7.05;100.00
51147;BME280;37207;53.060;18.726;2024-03-23T05:42:17;99657.35;;;7.06;100.00
51147;BME280;37207;53.060;18.726;2024-03-23T05:44:47;99654.75;;;7.06;100.00
51147;BME280;37207;53.060;18.726;2024-03-23T05:47:13;99649.17;;;7.06;100.00
51147;BME280;37207;53.060;18.726;2024-03-23T05:49:41;99642.79;;;7.07;100.00
51147;BME280;37207;53.060;18.726;2024-03-23T05:52:10;99637.83;;;7.06;100.00
51147;BME280;37207;53.060;18.726;2024-03-23T05:54:37;99638.97;;;7.05;100.00
51147;BME280;37207;53.060;18.726;2024-03-23T05:57:04;99632.60;;;7.07;100.00
51147;BME280;37207;53.060;18.726;2024-03-23T05:59:30;99626.47;;;7.08;100.00
51147;BME280;37207;53.060;18.726;2024-03-23T06:01:57;99624.33;;;7.08;100.00
51147;BME280;37207;53.060;18.726;2024-03-23T06:04:24;99622.13;;;7.10;100.00
51147;BME280;37207;53.060;18.726;2024-03-23T06:06:51;99617.29;;;7.10;100.00
51147;BME280;37207;53.060;18.726;2024-03-23T06:09:21;99617.90;;;7.12;100.00
51147;BME280;37207;53.060;18.726;2024-03-23T06:11:48;99618.16;;;7.13;100.00
51147;BME280;37207;53.060;18.726;2024-03-23T06:14:15;99616.42;;;7.14;100.00
51147;BME280;37207;53.060;18.726;2024-03-23T06:16:42;99618.31;;;7.13;100.00
51147;BME280;37207;53.060;18.726;2024-03-23T06:19:08;99616.20;;;7.11;100.00
51147;BME280;37207;53.060;18.726;2024-03-23T06:21:35;99613.95;;;7.11;100.00
51147;BME280;37207;53.060;18.726;2024-03-23T06:24:01;99610.85;;;7.10;100.00
51147;BME280;37207;53.060;18.726;2024-03-23T06:26:28;99605.80;;;7.10;100.00
51147;BME280;37207;53.060;18.726;2024-03-23T06:28:55;99599.96;;;7.10;100.00
51147;BME280;37207;53.060;18.726;2024-03-23T06:31:22;99598.56;;;7.11;100.00
51147;BME280;37207;53.060;18.726;2024-03-23T06:33:49;99598.42;;;7.12;100.00
51147;BME280;37207;53.060;18.726;2024-03-23T06:36:15;99601.38;;;7.13;100.00
51147;BME280;37207;53.060;18.726;2024-03-23T06:38:41;99604.67;;;7.12;100.00
51147;BME280;37207;53.060;18.726;2024-03-23T06:41:08;99592.63;;;7.11;100.00
51147;BME280;37207;53.060;18.726;2024-03-23T06:43:34;99580.09;;;7.08;100.00
51147;BME280;37207;53.060;18.726;2024-03-23T06:46:02;99568.84;;;7.06;100.00
51147;BME280;37207;53.060;18.726;2024-03-23T06:48:30;99566.01;;;7.09;100.00
51147;BME280;37207;53.060;18.726;2024-03-23T06:50:57;99566.58;;;7.13;100.00
51147;BME280;37207;53.060;18.726;2024-03-23T06:53:24;99566.27;;;7.17;100.00
51147;BME280;37207;53.060;18.726;2024-03-23T06:55:54;99572.14;;;7.21;100.00
51147;BME280;37207;53.060;18.726;2024-03-23T06:58:21;99570.89;;;7.24;100.00
51147;BME280;37207;53.060;18.726;2024-03-23T07:00:48;99568.69;;;7.25;100.00
51147;BME280;37207;53.060;18.726;2024-03-23T07:03:16;99564.11;;;7.27;100.00
51147;BME280;37207;53.060;18.726;2024-03-23T07:05:43;99564.41;;;7.27;100.00
51147;BME280;37207;53.060;18.726;2024-03-23T07:08:10;99564.30;;;7.28;100.00
51147;BME280;37207;53.060;18.726;2024-03-23T07:10:39;99565.57;;;7.29;100.00
51147;BME280;37207;53.060;18.726;2024-03-23T07:13:05;99569.65;;;7.29;100.00
51147;BME280;37207;53.060;18.726;2024-03-23T07:15:33;99579.75;;;7.29;100.00
51147;BME280;37207;53.060;18.726;2024-03-23T07:17:59;99579.89;;;7.29;100.00
51147;BME280;37207;53.060;18.726;2024-03-23T07:20:26;99581.35;;;7.29;100.00
51147;BME280;37207;53.060;18.726;2024-03-23T07:22:53;99580.52;;;7.31;100.00
51147;BME280;37207;53.060;18.726;2024-03-23T07:25:19;99583.18;;;7.33;100.00
51147;BME280;37207;53.060;18.726;2024-03-23T07:27:47;99581.13;;;7.33;100.00
51147;BME280;37207;53.060;18.726;2024-03-23T07:30:14;99576.48;;;7.33;100.00
51147;BME280;37207;53.060;18.726;2024-03-23T07:32:40;99576.94;;;7.33;100.00
51147;BME280;37207;53.060;18.726;2024-03-23T07:35:07;99573.83;;;7.32;100.00
51147;BME280;37207;53.060;18.726;2024-03-23T07:37:33;99569.64;;;7.32;100.00
51147;BME280;37207;53.060;18.726;2024-03-23T07:40:00;99569.80;;;7.33;100.00
51147;BME280;37207;53.060;18.726;2024-03-23T07:42:26;99566.09;;;7.38;100.00
51147;BME280;37207;53.060;18.726;2024-03-23T07:44:53;99569.30;;;7.39;100.00
51147;BME280;37207;53.060;18.726;2024-03-23T07:47:21;99565.23;;;7.38;100.00
51147;BME280;37207;53.060;18.726;2024-03-23T07:49:47;99570.14;;;7.38;100.00
51147;BME280;37207;53.060;18.726;2024-03-23T07:52:14;99556.92;;;7.41;100.00
51147;BME280;37207;53.060;18.726;2024-03-23T07:54:41;99557.25;;;7.44;100.00
51147;BME280;37207;53.060;18.726;2024-03-23T07:57:07;99541.90;;;7.46;100.00
51147;BME280;37207;53.060;18.726;2024-03-23T07:59:34;99546.84;;;7.51;100.00
51147;BME280;37207;53.060;18.726;2024-03-23T08:02:00;99545.38;;;7.55;100.00
51147;BME280;37207;53.060;18.726;2024-03-23T08:04:27;99530.47;;;7.62;100.00
51147;BME280;37207;53.060;18.726;2024-03-23T08:06:54;99525.83;;;7.72;100.00
51147;BME280;37207;53.060;18.726;2024-03-23T08:09:20;99522.17;;;7.79;100.00
51147;BME280;37207;53.060;18.726;2024-03-23T08:11:47;99518.92;;;7.82;99.99
51147;BME280;37207;53.060;18.726;2024-03-23T08:14:15;99518.35;;;7.85;99.89
51147;BME280;37207;53.060;18.726;2024-03-23T08:16:42;99514.54;;;7.83;99.57
51147;BME280;37207;53.060;18.726;2024-03-23T08:19:15;99506.05;;;7.84;99.60
51147;BME280;37207;53.060;18.726;2024-03-23T08:21:41;99501.23;;;7.88;99.69
51147;BME280;37207;53.060;18.726;2024-03-23T08:24:08;99501.04;;;7.89;99.34
51147;BME280;37207;53.060;18.726;2024-03-23T08:26:35;99506.44;;;7.83;98.69
51147;BME280;37207;53.060;18.726;2024-03-23T08:29:03;99506.83;;;7.77;98.80
51147;BME280;37207;53.060;18.726;2024-03-23T08:31:30;99509.10;;;7.73;99.05
51147;BME280;37207;53.060;18.726;2024-03-23T08:33:57;99512.86;;;7.68;98.95
51147;BME280;37207;53.060;18.726;2024-03-23T08:36:23;99511.98;;;7.64;98.94
51147;BME280;37207;53.060;18.726;2024-03-23T08:38:50;99507.94;;;7.62;99.09
51147;BME280;37207;53.060;18.726;2024-03-23T08:41:20;99504.84;;;7.61;99.56
51147;BME280;37207;53.060;18.726;2024-03-23T08:43:46;99494.40;;;7.60;99.63
51147;BME280;37207;53.060;18.726;2024-03-23T08:46:15;99490.84;;;7.59;99.67
51147;BME280;37207;53.060;18.726;2024-03-23T08:48:43;99483.04;;;7.58;99.83
51147;BME280;37207;53.060;18.726;2024-03-23T08:51:13;99475.34;;;7.57;99.61
51147;BME280;37207;53.060;18.726;2024-03-23T08:53:41;99468.65;;;7.60;99.72
51147;BME280;37207;53.060;18.726;2024-03-23T08:56:08;99469.11;;;7.64;99.89
51147;BME280;37207;53.060;18.726;2024-03-23T08:58:36;99469.02;;;7.67;99.95
51147;BME280;37207;53.060;18.726;2024-03-23T09:01:12;99467.73;;;7.67;99.92
51147;BME280;37207;53.060;18.726;2024-03-23T09:03:42;99459.63;;;7.67;99.77
51147;BME280;37207;53.060;18.726;2024-03-23T09:06:10;99457.08;;;7.65;99.82
51147;BME280;37207;53.060;18.726;2024-03-23T09:08:37;99454.06;;;7.59;99.69
51147;BME280;37207;53.060;18.726;2024-03-23T09:11:05;99450.64;;;7.54;99.61
51147;BME280;37207;53.060;18.726;2024-03-23T09:13:36;99451.80;;;7.50;99.57
51147;BME280;37207;53.060;18.726;2024-03-23T09:16:04;99450.39;;;7.45;99.55
51147;BME280;37207;53.060;18.726;2024-03-23T09:18:48;99439.77;;;7.41;99.67
51147;BME280;37207;53.060;18.726;2024-03-23T09:21:14;99429.77;;;7.38;99.72
51147;BME280;37207;53.060;18.726;2024-03-23T09:23:44;99430.30;;;7.34;99.42
51147;BME280;37207;53.060;18.726;2024-03-23T09:26:11;99429.37;;;7.31;99.60
51147;BME280;37207;53.060;18.726;2024-03-23T09:28:37;99425.70;;;7.28;99.43
51147;BME280;37207;53.060;18.726;2024-03-23T09:31:04;99420.62;;;7.27;99.17
51147;BME280;37207;53.060;18.726;2024-03-23T09:33:31;99422.11;;;7.24;98.96
51147;BME280;37207;53.060;18.726;2024-03-23T09:35:58;99420.95;;;7.23;98.92
51147;BME280;37207;53.060;18.726;2024-03-23T09:38:24;99418.02;;;7.24;99.23
51147;BME280;37207;53.060;18.726;2024-03-23T09:40:57;99413.11;;;7.23;98.90
51147;BME280;37207;53.060;18.726;2024-03-23T09:43:40;99415.18;;;7.19;98.83
51147;BME280;37207;53.060;18.726;2024-03-23T09:46:08;99402.83;;;7.17;98.95
51147;BME280;37207;53.060;18.726;2024-03-23T09:48:38;99396.92;;;7.15;98.83
51147;BME280;37207;53.060;18.726;2024-03-23T09:51:05;99399.37;;;7.14;99.03
51147;BME280;37207;53.060;18.726;2024-03-23T09:53:40;99401.42;;;7.14;98.92
51147;BME280;37207;53.060;18.726;2024-03-23T09:56:07;99400.75;;;7.14;98.98
51147;BME280;37207;53.060;18.726;2024-03-23T09:58:42;99403.25;;;7.13;98.84
51147;BME280;37207;53.060;18.726;2024-03-23T10:01:08;99406.06;;;7.14;99.29
51147;BME280;37207;53.060;18.726;2024-03-23T10:03:47;99405.52;;;7.14;99.03
51147;BME280;37207;53.060;18.726;2024-03-23T10:06:13;99403.34;;;7.12;98.91
51147;BME280;37207;53.060;18.726;2024-03-23T10:08:40;99393.26;;;7.11;99.19
51147;BME280;37207;53.060;18.726;2024-03-23T10:11:16;99390.46;;;7.10;99.10
51147;BME280;37207;53.060;18.726;2024-03-23T10:13:51;99384.42;;;7.08;99.06
51147;BME280;37207;53.060;18.726;2024-03-23T10:16:26;99382.96;;;7.07;99.06
51147;BME280;37207;53.060;18.726;2024-03-23T10:19:01;99365.29;;;7.07;99.23
51147;BME280;37207;53.060;18.726;2024-03-23T10:21:28;99347.52;;;7.08;99.54
51147;BME280;37207;53.060;18.726;2024-03-23T10:23:54;99342.13;;;7.13;99.60
51147;BME280;37207;53.060;18.726;2024-03-23T10:26:23;99339.41;;;7.17;99.76
51147;BME280;37207;53.060;18.726;2024-03-23T10:29:00;99344.50;;;7.23;99.95
51147;BME280;37207;53.060;18.726;2024-03-23T10:31:28;99357.70;;;7.32;99.89
51147;BME280;37207;53.060;18.726;2024-03-23T10:33:55;99367.02;;;7.34;99.60
51147;BME280;37207;53.060;18.726;2024-03-23T10:36:23;99383.70;;;7.36;99.88
51147;BME280;37207;53.060;18.726;2024-03-23T10:38:51;99389.23;;;7.34;99.80
51147;BME280;37207;53.060;18.726;2024-03-23T10:41:18;99388.56;;;7.31;99.57
51147;BME280;37207;53.060;18.726;2024-03-23T10:43:47;99387.41;;;7.27;99.81
51147;BME280;37207;53.060;18.726;2024-03-23T10:46:15;99389.32;;;7.19;99.32
51147;BME280;37207;53.060;18.726;2024-03-23T10:48:42;99387.92;;;7.12;99.27
51147;BME280;37207;53.060;18.726;2024-03-23T10:51:10;99380.03;;;7.09;99.59
51147;BME280;37207;53.060;18.726;2024-03-23T10:53:37;99369.03;;;7.07;99.58
51147;BME280;37207;53.060;18.726;2024-03-23T10:56:04;99357.73;;;7.06;99.84
51147;BME280;37207;53.060;18.726;2024-03-23T10:58:41;99350.64;;;7.05;99.76
51147;BME280;37207;53.060;18.726;2024-03-23T11:01:12;99342.34;;;7.02;99.65
51147;BME280;37207;53.060;18.726;2024-03-23T11:03:44;99337.37;;;6.97;99.52
51147;BME280;37207;53.060;18.726;2024-03-23T11:06:34;99338.05;;;6.90;99.39
51147;BME280;37207;53.060;18.726;2024-03-23T11:09:01;99338.61;;;6.80;99.41
51147;BME280;37207;53.060;18.726;2024-03-23T11:11:28;99327.77;;;6.75;99.45
51147;BME280;37207;53.060;18.726;2024-03-23T11:13:59;99320.80;;;6.69;99.39
51147;BME280;37207;53.060;18.726;2024-03-23T11:16:27;99314.54;;;6.67;99.78
51147;BME280;37207;53.060;18.726;2024-03-23T11:22:01;99296.02;;;6.71;100.00
51147;BME280;37207;53.060;18.726;2024-03-23T11:24:27;99291.59;;;6.74;99.99
51147;BME280;37207;53.060;18.726;2024-03-23T11:26:54;99300.56;;;6.73;99.95
51147;BME280;37207;53.060;18.726;2024-03-23T11:29:20;99311.42;;;6.71;99.86
51147;BME280;37207;53.060;18.726;2024-03-23T11:31:48;99301.13;;;6.69;99.92
51147;BME280;37207;53.060;18.726;2024-03-23T11:34:21;99281.77;;;6.69;100.00
51147;BME280;37207;53.060;18.726;2024-03-23T11:36:48;99269.79;;;6.68;99.92
51147;BME280;37207;53.060;18.726;2024-03-23T11:39:20;99267.05;;;6.68;99.98
51147;BME280;37207;53.060;18.726;2024-03-23T11:41:51;99272.05;;;6.70;100.00
51147;BME280;37207;53.060;18.726;2024-03-23T11:44:22;99258.20;;;6.76;100.00
51147;BME280;37207;53.060;18.726;2024-03-23T11:46:49;99251.77;;;6.79;100.00
51147;BME280;37207;53.060;18.726;2024-03-23T11:49:34;99240.10;;;6.79;100.00
51147;BME280;37207;53.060;18.726;2024-03-23T11:52:07;99237.39;;;6.76;99.99
51147;BME280;37207;53.060;18.726;2024-03-23T11:54:33;99239.25;;;6.75;100.00
51147;BME280;37207;53.060;18.726;2024-03-23T11:57:02;99230.61;;;6.78;100.00
51147;BME280;37207;53.060;18.726;2024-03-23T11:59:40;99224.08;;;6.78;100.00
51147;BME280;37207;53.060;18.726;2024-03-23T12:02:11;99224.97;;;6.76;99.94
51147;BME280;37207;53.060;18.726;2024-03-23T12:04:40;99225.90;;;6.71;100.00
51147;BME280;37207;53.060;18.726;2024-03-23T12:07:13;99220.23;;;6.65;99.94
51147;BME280;37207;53.060;18.726;2024-03-23T12:09:41;99220.14;;;6.56;99.66
51147;BME280;37207;53.060;18.726;2024-03-23T12:14:42;99225.20;;;6.44;99.72
51147;BME280;37207;53.060;18.726;2024-03-23T12:17:15;99227.68;;;6.40;99.92
51147;BME280;37207;53.060;18.726;2024-03-23T12:19:42;99222.08;;;6.36;99.99
51147;BME280;37207;53.060;18.726;2024-03-23T12:22:08;99216.77;;;6.33;99.98
51147;BME280;37207;53.060;18.726;2024-03-23T12:24:35;99214.10;;;6.30;100.00
51147;BME280;37207;53.060;18.726;2024-03-23T12:27:03;99213.59;;;6.27;99.96
51147;BME280;37207;53.060;18.726;2024-03-23T12:29:31;99202.35;;;6.24;99.90
51147;BME280;37207;53.060;18.726;2024-03-23T12:32:02;99198.20;;;6.21;99.96
51147;BME280;37207;53.060;18.726;2024-03-23T12:34:28;99197.08;;;6.16;100.00
51147;BME280;37207;53.060;18.726;2024-03-23T12:36:56;99198.91;;;6.16;100.00
51147;BME280;37207;53.060;18.726;2024-03-23T12:39:23;99194.02;;;6.15;100.00
51147;BME280;37207;53.060;18.726;2024-03-23T12:41:50;99179.41;;;6.15;100.00
51147;BME280;37207;53.060;18.726;2024-03-23T12:44:16;99164.27;;;6.17;100.00
51147;BME280;37207;53.060;18.726;2024-03-23T12:46:43;99163.96;;;6.21;100.00
51147;BME280;37207;53.060;18.726;2024-03-23T12:49:10;99157.83;;;6.23;100.00
51147;BME280;37207;53.060;18.726;2024-03-23T12:51:37;99156.59;;;6.26;100.00
51147;BME280;37207;53.060;18.726;2024-03-23T12:54:03;99158.17;;;6.31;100.00
51147;BME280;37207;53.060;18.726;2024-03-23T12:56:30;99155.73;;;6.34;100.00
51147;BME280;37207;53.060;18.726;2024-03-23T12:58:59;99149.73;;;6.30;100.00
51147;BME280;37207;53.060;18.726;2024-03-23T13:01:26;99154.19;;;6.25;100.00
51147;BME280;37207;53.060;18.726;2024-03-23T13:03:52;99145.02;;;6.22;100.00
51147;BME280;37207;53.060;18.726;2024-03-23T13:06:19;99129.60;;;6.20;100.00
51147;BME280;37207;53.060;18.726;2024-03-23T13:08:46;99117.27;;;6.18;100.00
51147;BME280;37207;53.060;18.726;2024-03-23T13:11:13;99120.15;;;6.16;100.00
51147;BME280;37207;53.060;18.726;2024-03-23T13:13:40;99133.63;;;6.11;100.00
51147;BME280;37207;53.060;18.726;2024-03-23T13:16:08;99132.45;;;6.06;100.00
51147;BME280;37207;53.060;18.726;2024-03-23T13:18:34;99120.83;;;6.02;100.00
51147;BME280;37207;53.060;18.726;2024-03-23T13:21:01;99106.79;;;5.98;100.00
51147;BME280;37207;53.060;18.726;2024-03-23T13:23:28;99094.00;;;5.92;100.00
51147;BME280;37207;53.060;18.726;2024-03-23T13:25:55;99095.48;;;5.89;100.00
51147;BME280;37207;53.060;18.726;2024-03-23T13:28:22;99097.84;;;5.86;100.00
51147;BME280;37207;53.060;18.726;2024-03-23T13:30:56;99098.38;;;5.84;100.00
51147;BME280;37207;53.060;18.726;2024-03-23T13:33:30;99094.66;;;5.81;100.00
51147;BME280;37207;53.060;18.726;2024-03-23T13:35:58;99098.27;;;5.78;100.00
51147;BME280;37207;53.060;18.726;2024-03-23T13:38:26;99096.46;;;5.76;100.00
51147;BME280;37207;53.060;18.726;2024-03-23T13:40:57;99093.00;;;5.74;100.00
51147;BME280;37207;53.060;18.726;2024-03-23T13:43:24;99096.54;;;5.70;100.00
51147;BME280;37207;53.060;18.726;2024-03-23T13:45:54;99090.19;;;5.68;100.00
51147;BME280;37207;53.060;18.726;2024-03-23T13:48:23;99074.48;;;5.66;100.00
51147;BME280;37207;53.060;18.726;2024-03-23T13:50:57;99065.02;;;5.65;100.00
51147;BME280;37207;53.060;18.726;2024-03-23T13:53:24;99054.95;;;5.63;100.00
51147;BME280;37207;53.060;18.726;2024-03-23T13:55:51;99056.29;;;5.63;100.00